Time;durP1;ratioP1;P1;durP2;ratioP2;P2;SDS_P1;SDS_P2;PMS_P1;PMS_P2;Temp;Humidity;BMP_temperature;BMP_pressure;BME280_temperature;BME280_humidity;BME280_pressure;Samples;Min_cycle;Max_cycle;Signal;HPM_P1;HPM_P2
2022/11/25 00:02:02;;;;;;;6.13;3.03;;;;;;;7.10;100.00;101744.81;4945128;28;20051;-77
2022/11/25 00:04:35;;;;;;;7.63;3.78;;;;;;;7.16;100.00;101745.19;4946988;28;20053;-77
2022/11/25 00:07:04;;;;;;;5.75;3.75;;;;;;;7.22;100.00;101742.09;4947698;28;20410;-77
2022/11/25 00:09:33;;;;;;;10.00;4.78;;;;;;;7.22;100.00;101747.25;4950048;28;20094;-77
2022/11/25 00:12:01;;;;;;;7.22;4.07;;;;;;;7.22;100.00;101744.69;4957662;28;20059;-76
2022/11/25 00:14:33;;;;;;;9.07;3.78;;;;;;;7.22;100.00;101749.84;4955960;28;20047;-76
2022/11/25 00:17:02;;;;;;;7.43;3.75;;;;;;;7.15;100.00;101738.28;4949194;28;20055;-76
2022/11/25 00:19:32;;;;;;;7.63;4.45;;;;;;;7.05;100.00;101733.38;4947060;28;20055;-77
2022/11/25 00:22:01;;;;;;;7.07;4.40;;;;;;;7.03;100.00;101737.53;4950765;28;20062;-76
2022/11/25 00:24:29;;;;;;;9.55;4.22;;;;;;;7.07;100.00;101747.22;4948558;28;20053;-77
2022/11/25 00:27:03;;;;;;;10.25;3.97;;;;;;;7.08;100.00;101738.72;4945150;28;20143;-76
2022/11/25 00:29:34;;;;;;;4.93;3.22;;;;;;;7.08;100.00;101747.31;4951583;28;20070;-76
2022/11/25 00:32:03;;;;;;;13.20;4.03;;;;;;;7.06;100.00;101743.75;4942859;28;20086;-76
2022/11/25 00:34:31;;;;;;;7.57;3.72;;;;;;;6.97;100.00;101732.94;4947863;28;20045;-76
2022/11/25 00:37:00;;;;;;;17.75;4.40;;;;;;;6.90;100.00;101726.53;4953154;28;20059;-76
2022/11/25 00:39:29;;;;;;;9.63;3.45;;;;;;;6.83;100.00;101729.53;4944491;28;20079;-76
2022/11/25 00:44:47;;;;;;;9.85;4.28;;;;;;;6.80;100.00;101731.00;4952480;28;20252;-77
2022/11/25 00:47:17;;;;;;;6.35;3.15;;;;;;;6.77;100.00;101729.16;4951313;28;20078;-76
2022/11/25 00:49:48;;;;;;;12.40;3.58;;;;;;;6.70;100.00;101733.03;4951737;28;20055;-75
2022/11/25 00:52:19;;;;;;;8.48;3.65;;;;;;;6.65;100.00;101733.56;4948786;28;20116;-76
2022/11/25 00:54:52;;;;;;;5.80;3.70;;;;;;;6.65;100.00;101728.41;4950426;28;20060;-77
2022/11/25 00:57:29;;;;;;;9.07;3.88;;;;;;;6.72;100.00;101731.44;4949427;28;20179;-76
2022/11/25 00:59:59;;;;;;;15.43;3.88;;;;;;;6.75;100.00;101722.13;4951625;28;20058;-76
2022/11/25 01:02:30;;;;;;;7.85;3.55;;;;;;;6.77;100.00;101721.44;4950000;28;20043;-76
2022/11/25 01:04:59;;;;;;;9.40;3.58;;;;;;;6.77;100.00;101726.56;4951862;28;20058;-76
2022/11/25 01:07:28;;;;;;;7.22;3.90;;;;;;;6.79;100.00;101725.00;4948029;28;20079;-76
2022/11/25 01:09:56;;;;;;;9.48;3.78;;;;;;;6.84;100.00;101721.00;4945528;28;20055;-76
2022/11/25 01:12:28;;;;;;;19.35;4.70;;;;;;;6.76;100.00;101701.66;4946572;28;20402;-76
2022/11/25 01:14:58;;;;;;;13.02;4.53;;;;;;;6.77;100.00;101708.56;4944394;28;20058;-76
2022/11/25 01:17:27;;;;;;;6.65;4.05;;;;;;;6.75;100.00;101720.44;4950966;28;20055;-77
2022/11/25 01:19:55;;;;;;;11.05;4.20;;;;;;;6.75;100.00;101712.72;4950623;28;20148;-76
2022/11/25 01:22:24;;;;;;;8.07;3.58;;;;;;;6.76;100.00;101717.09;4950812;28;20044;-76
2022/11/25 01:24:53;;;;;;;8.00;4.07;;;;;;;6.74;100.00;101710.97;4951174;28;20059;-77
2022/11/25 01:27:21;;;;;;;8.27;4.57;;;;;;;6.76;100.00;101722.25;4945262;28;20497;-76
2022/11/25 01:29:58;;;;;;;10.10;4.13;;;;;;;6.82;100.00;101717.44;4946468;28;20058;-76
2022/11/25 01:32:27;;;;;;;8.30;3.63;;;;;;;6.85;100.00;101725.38;4948993;28;20062;-76
2022/11/25 01:34:55;;;;;;;10.52;5.07;;;;;;;6.90;100.00;101721.38;4949378;28;20143;-76
2022/11/25 01:37:24;;;;;;;12.45;4.88;;;;;;;6.93;100.00;101724.13;4946913;28;20537;-78
2022/11/25 01:39:53;;;;;;;9.70;5.28;;;;;;;6.97;100.00;101719.19;4958882;28;20054;-77
2022/11/25 01:42:21;;;;;;;9.40;4.45;;;;;;;6.99;100.00;101720.16;4941908;28;20043;-76
2022/11/25 01:45:22;;;;;;;13.05;4.60;;;;;;;6.98;100.00;101723.50;4946601;28;20059;-77
2022/11/25 01:48:00;;;;;;;9.38;5.20;;;;;;;6.97;100.00;101717.47;4949667;28;20117;-78
2022/11/25 01:50:32;;;;;;;11.65;4.15;;;;;;;6.97;100.00;101722.63;4946604;28;20051;-77
2022/11/25 01:53:02;;;;;;;13.80;5.03;;;;;;;6.98;100.00;101731.22;4942521;28;20051;-77
2022/11/25 01:55:34;;;;;;;17.15;4.85;;;;;;;6.97;100.00;101726.91;4945188;28;20321;-77
2022/11/25 01:58:07;;;;;;;8.77;4.73;;;;;;;6.97;100.00;101732.03;4948186;28;20059;-77
2022/11/25 02:00:36;;;;;;;;;;;;;;;6.95;100.00;101736.22;4949163;28;20066;-77
2022/11/25 02:03:08;;;;;;;8.63;3.92;;;;;;;6.96;100.00;101745.69;4951262;28;19930;-77
2022/11/25 02:05:48;;;;;;;8.40;4.70;;;;;;;6.97;100.00;101753.50;4950841;28;20047;-77
2022/11/25 02:08:18;;;;;;;13.15;5.97;;;;;;;6.98;100.00;101754.38;4950955;28;20061;-77
2022/11/25 02:10:47;;;;;;;10.20;4.88;;;;;;;6.98;100.00;101750.13;4946852;28;20051;-77
2022/11/25 02:13:24;;;;;;;13.82;4.38;;;;;;;7.00;100.00;101760.53;4950988;28;20059;-77
2022/11/25 02:15:53;;;;;;;9.77;4.25;;;;;;;7.00;100.00;101753.69;4956391;28;20061;-77
2022/11/25 02:18:23;;;;;;;7.47;4.05;;;;;;;7.00;100.00;101753.69;4950712;28;20047;-77
2022/11/25 02:21:02;;;;;;;;;;;;;;;;;;;;;
2022/11/25 02:23:40;;;;;;;17.80;5.00;;;;;;;6.99;100.00;101761.34;4950764;28;20055;-76
2022/11/25 02:26:11;;;;;;;10.88;4.90;;;;;;;6.99;100.00;101757.06;4945190;28;20055;-78
2022/11/25 02:28:43;;;;;;;8.40;4.45;;;;;;;7.00;100.00;101757.94;4953799;28;20051;-77
2022/11/25 02:31:12;;;;;;;15.20;5.30;;;;;;;6.97;100.00;101757.78;4949747;28;20498;-76
2022/11/25 02:33:41;;;;;;;9.50;4.38;;;;;;;6.96;100.00;101771.41;4949378;28;20052;-77
2022/11/25 02:36:15;;;;;;;9.93;4.40;;;;;;;6.95;100.00;101769.66;4947550;28;20054;-77
2022/11/25 02:38:51;;;;;;;9.73;4.60;;;;;;;6.96;100.00;101759.44;4950803;28;20047;-77
2022/11/25 02:41:25;;;;;;;10.55;4.15;;;;;;;6.90;100.00;101752.25;4956323;28;20043;-77
2022/11/25 02:43:54;;;;;;;7.18;3.58;;;;;;;6.87;100.00;101749.50;4949535;28;20951;-77
2022/11/25 02:46:27;;;;;;;7.78;4.35;;;;;;;6.80;100.00;101741.31;4949701;28;20086;-77
2022/11/25 02:48:57;;;;;;;9.20;4.00;;;;;;;6.88;100.00;101742.66;4951903;28;20133;-77
2022/11/25 02:51:28;;;;;;;6.45;3.42;;;;;;;6.90;100.00;101741.06;4951482;28;20058;-78
2022/11/25 02:53:57;;;;;;;7.57;4.07;;;;;;;6.90;100.00;101741.97;4959218;28;20511;-77
2022/11/25 02:56:29;;;;;;;12.18;5.10;;;;;;;6.88;100.00;101751.25;4946393;28;20059;-77
2022/11/25 02:58:58;;;;;;;7.28;3.63;;;;;;;6.89;100.00;101750.50;4948405;28;20058;-76
2022/11/25 03:01:27;;;;;;;7.15;4.10;;;;;;;6.85;100.00;101740.81;4947391;28;20167;-76
2022/11/25 03:03:56;;;;;;;9.55;4.93;;;;;;;6.81;100.00;101745.66;4950351;28;20074;-77
2022/11/25 03:06:26;;;;;;;6.82;3.60;;;;;;;6.75;100.00;101748.75;4946054;28;20059;-78
2022/11/25 03:08:55;;;;;;;10.52;4.35;;;;;;;6.69;100.00;101756.09;4952358;28;20039;-77
2022/11/25 03:12:17;;;;;;;7.45;4.72;;;;;;;6.68;100.00;101756.88;4950284;28;20042;-76
2022/11/25 03:14:15;;;;;;;6.50;4.03;;;;;;;6.59;100.00;101764.03;4947332;28;20051;-77
2022/11/25 03:16:43;;;;;;;8.02;3.55;;;;;;;6.44;100.00;101770.00;4942801;28;20176;-76
2022/11/25 03:19:12;;;;;;;8.77;3.75;;;;;;;6.34;100.00;101777.91;4948806;28;20059;-78
2022/11/25 03:21:41;;;;;;;4.32;2.88;;;;;;;6.27;100.00;101768.94;4949656;28;20055;-77
2022/11/25 03:24:14;;;;;;;6.57;3.67;;;;;;;6.27;100.00;101765.47;4946767;28;20060;-77
2022/11/25 03:26:43;;;;;;;6.97;3.22;;;;;;;6.24;100.00;101750.75;4945930;28;20054;-77
2022/11/25 03:29:11;;;;;;;6.05;3.28;;;;;;;6.25;100.00;101750.00;4948944;28;20047;-77
2022/11/25 03:31:43;;;;;;;8.68;3.92;;;;;;;6.28;100.00;101746.72;4949911;28;20057;-82
2022/11/25 03:34:12;;;;;;;5.88;3.65;;;;;;;6.33;100.00;101753.03;4947772;28;20050;-77
2022/11/25 03:36:41;;;;;;;4.78;3.03;;;;;;;6.35;100.00;101759.16;4951991;28;20174;-77
2022/11/25 03:39:10;;;;;;;6.50;3.55;;;;;;;6.36;100.00;101755.78;4954531;28;20053;-83
2022/11/25 03:41:38;;;;;;;6.90;3.95;;;;;;;6.37;100.00;101761.81;4950043;28;20047;-82
2022/11/25 03:46:50;;;;;;;6.32;3.55;;;;;;;6.40;100.00;101762.00;4944736;28;20128;-79
2022/11/25 03:49:20;;;;;;;6.40;4.10;;;;;;;6.42;100.00;101766.44;4947777;28;20058;-81
2022/11/25 03:51:50;;;;;;;6.78;3.88;;;;;;;6.44;100.00;101759.72;4943733;28;20055;-79
2022/11/25 03:54:21;;;;;;;6.82;3.28;;;;;;;6.39;100.00;101761.13;4943684;28;20137;-79
2022/11/25 03:56:49;;;;;;;9.02;3.60;;;;;;;6.37;100.00;101769.50;4944748;28;20528;-82
2022/11/25 03:59:18;;;;;;;3.92;2.80;;;;;;;6.37;100.00;101769.50;4948720;28;20089;-82
2022/11/25 04:01:47;;;;;;;5.88;3.40;;;;;;;6.33;100.00;101770.13;4949818;28;20050;-77
2022/11/25 04:04:25;;;;;;;6.50;3.80;;;;;;;6.30;100.00;101775.97;4952096;28;20057;-76
2022/11/25 04:06:54;;;;;;;7.68;2.90;;;;;;;6.26;100.00;101779.13;4959733;28;20123;-77
2022/11/25 04:09:24;;;;;;;4.22;2.97;;;;;;;6.14;100.00;101778.34;4953769;28;20047;-78
2022/11/25 04:14:38;;;;;;;9.18;3.65;;;;;;;6.06;100.00;101785.56;4947546;28;20075;-78
2022/11/25 04:17:07;;;;;;;4.80;3.03;;;;;;;6.09;100.00;101788.31;4945728;28;20059;-80
2022/11/25 04:19:37;;;;;;;6.18;3.67;;;;;;;6.08;100.00;101786.56;4953517;28;20130;-77
2022/11/25 04:22:06;;;;;;;5.03;3.42;;;;;;;6.06;100.00;101780.44;4953223;28;20052;-78
2022/11/25 04:24:35;;;;;;;5.82;3.83;;;;;;;6.07;100.00;101783.09;4952886;28;20481;-81
2022/11/25 04:27:04;;;;;;;5.70;2.85;;;;;;;6.11;100.00;101788.44;4952455;28;20043;-81
2022/11/25 04:29:33;;;;;;;5.68;3.60;;;;;;;6.17;100.00;101782.00;4947010;28;20040;-82
2022/11/25 04:32:02;;;;;;;6.65;3.80;;;;;;;6.18;100.00;101786.34;4950073;28;20589;-79
2022/11/25 04:34:31;;;;;;;7.53;3.25;;;;;;;6.22;100.00;101788.31;4946497;28;20679;-83
2022/11/25 04:37:01;;;;;;;4.43;3.00;;;;;;;6.28;100.00;101788.72;4952698;28;20177;-80
2022/11/25 04:39:31;;;;;;;8.55;4.28;;;;;;;6.33;100.00;101796.72;4954758;28;20047;-87
2022/11/25 04:44:41;;;;;;;5.72;3.67;;;;;;;6.37;100.00;101808.97;4945797;28;20059;-83
2022/11/25 04:47:10;;;;;;;8.88;3.65;;;;;;;6.41;100.00;101815.19;4952004;28;20090;-85
2022/11/25 04:49:39;;;;;;;6.38;3.42;;;;;;;6.40;100.00;101811.75;4950213;28;20043;-85
2022/11/25 04:52:09;;;;;;;6.53;3.80;;;;;;;6.41;100.00;101816.06;4952949;28;20090;-84
2022/11/25 04:54:38;;;;;;;8.98;4.70;;;;;;;6.41;100.00;101805.78;4951972;28;20147;-85
2022/11/25 04:57:07;;;;;;;4.28;3.50;;;;;;;6.40;100.00;101798.88;4949969;28;20078;-83
2022/11/25 04:59:40;;;;;;;9.10;3.78;;;;;;;6.41;100.00;101800.66;4950971;28;20042;-87
2022/11/25 05:02:15;;;;;;;7.68;3.42;;;;;;;6.39;100.00;101794.56;4949426;28;20134;-85
2022/11/25 05:04:46;;;;;;;6.68;3.55;;;;;;;6.39;100.00;101797.13;4947614;28;20053;-82
2022/11/25 05:07:18;;;;;;;9.85;5.32;;;;;;;6.37;100.00;101796.13;4952614;28;20785;-85
2022/11/25 05:09:47;;;;;;;7.50;4.10;;;;;;;6.37;100.00;101798.69;4952464;28;20062;-85
2022/11/25 05:12:17;;;;;;;7.95;4.88;;;;;;;6.38;100.00;101797.00;4949834;28;20055;-82
2022/11/25 05:14:46;;;;;;;9.27;4.78;;;;;;;6.39;100.00;101807.41;4951284;28;20039;-84
2022/11/25 05:17:17;;;;;;;9.10;4.70;;;;;;;6.39;100.00;101797.13;4953386;28;20118;-83
2022/11/25 05:19:46;;;;;;;7.65;4.22;;;;;;;6.40;100.00;101804.03;4949139;28;20055;-85
2022/11/25 05:22:18;;;;;;;9.05;4.28;;;;;;;6.41;100.00;101803.22;4948243;28;20066;-83
2022/11/25 05:24:47;;;;;;;6.22;4.05;;;;;;;6.42;100.00;101807.59;4951689;28;20047;-85
2022/11/25 05:27:16;;;;;;;9.43;4.80;;;;;;;6.40;100.00;101804.03;4949093;28;20088;-79
2022/11/25 05:29:45;;;;;;;8.07;4.63;;;;;;;6.40;100.00;101804.03;4943638;28;20070;-79
2022/11/25 05:32:14;;;;;;;8.02;4.22;;;;;;;6.42;100.00;101804.13;4951095;28;20062;-85
2022/11/25 05:34:43;;;;;;;6.53;3.88;;;;;;;6.41;100.00;101800.66;4949424;28;20058;-85
2022/11/25 05:37:15;;;;;;;7.65;3.97;;;;;;;6.41;100.00;101808.34;4952354;28;20043;-81
2022/11/25 05:39:44;;;;;;;12.27;4.93;;;;;;;6.41;100.00;101805.78;4952153;28;20138;-80
2022/11/25 05:42:13;;;;;;;9.27;4.55;;;;;;;6.43;100.00;101804.22;4944634;28;20050;-83
2022/11/25 05:44:41;;;;;;;9.68;4.82;;;;;;;6.42;100.00;101799.88;4952434;28;20058;-86
2022/11/25 05:47:10;;;;;;;8.45;4.32;;;;;;;6.41;100.00;101803.22;4951281;28;20070;-85
2022/11/25 05:49:39;;;;;;;9.23;4.40;;;;;;;6.42;100.00;101786.13;4949983;28;20043;-82
2022/11/25 05:52:07;;;;;;;7.63;4.45;;;;;;;6.42;100.00;101791.28;4952959;28;20055;-80
2022/11/25 05:54:38;;;;;;;7.30;4.10;;;;;;;6.37;100.00;101793.56;4950027;28;20051;-80
2022/11/25 05:57:06;;;;;;;10.00;4.90;;;;;;;6.27;100.00;101781.78;4950340;28;20043;-80
2022/11/25 05:59:35;;;;;;;8.00;4.35;;;;;;;6.18;100.00;101770.03;4949930;28;20050;-78
2022/11/25 06:02:04;;;;;;;9.25;4.43;;;;;;;6.21;100.00;101780.53;4950814;28;20055;-79
2022/11/25 06:04:32;;;;;;;7.93;4.53;;;;;;;6.22;100.00;101777.16;4953437;28;20553;-77
2022/11/25 06:07:01;;;;;;;9.02;4.15;;;;;;;6.23;100.00;101781.50;4944817;28;20055;-81
2022/11/25 06:09:30;;;;;;;10.07;4.43;;;;;;;6.24;100.00;101781.59;4950379;28;20055;-82
2022/11/25 06:12:01;;;;;;;8.60;4.50;;;;;;;6.19;100.00;101779.53;4951360;28;20055;-79
2022/11/25 06:14:29;;;;;;;4.40;3.30;;;;;;;6.18;100.00;101780.31;4950625;28;20101;-77
2022/11/25 06:16:58;;;;;;;8.63;4.50;;;;;;;6.10;100.00;101776.41;4951572;28;20082;-79
2022/11/25 06:19:27;;;;;;;6.18;4.05;;;;;;;6.06;100.00;101790.72;4953136;28;20093;-78
2022/11/25 06:21:55;;;;;;;12.23;4.70;;;;;;;6.06;100.00;101801.88;4949235;28;20050;-79
2022/11/25 06:24:24;;;;;;;9.30;3.67;;;;;;;6.03;100.00;101805.94;4944348;28;20058;-82
2022/11/25 06:26:53;;;;;;;7.00;4.30;;;;;;;6.05;100.00;101810.38;4948847;28;20098;-79
2022/11/25 06:29:23;;;;;;;13.23;4.40;;;;;;;6.06;100.00;101812.16;4945994;28;20050;-79
2022/11/25 06:31:52;;;;;;;9.90;4.93;;;;;;;6.07;100.00;101808.81;4946148;28;20058;-80
2022/11/25 06:34:20;;;;;;;11.80;5.28;;;;;;;6.12;100.00;101806.53;4948467;28;20043;-77
2022/11/25 06:36:50;;;;;;;9.15;3.95;;;;;;;6.08;100.00;101805.44;4946659;28;20126;-81
2022/11/25 06:39:19;;;;;;;7.90;4.95;;;;;;;6.10;100.00;101802.09;4951959;28;20039;-82
2022/11/25 06:41:48;;;;;;;12.80;4.05;;;;;;;6.05;100.00;101809.50;4956352;28;20053;-80
2022/11/25 06:44:17;;;;;;;8.13;4.28;;;;;;;5.96;100.00;101798.63;4949072;28;20047;-82
2022/11/25 06:46:47;;;;;;;8.25;4.60;;;;;;;5.94;100.00;101802.75;4951020;28;20086;-85
2022/11/25 06:49:16;;;;;;;11.52;5.18;;;;;;;5.92;100.00;101818.03;4949219;28;20047;-84
2022/11/25 06:51:45;;;;;;;8.48;4.45;;;;;;;5.96;100.00;101830.34;4949452;28;20055;-81
2022/11/25 06:54:13;;;;;;;11.77;5.68;;;;;;;5.97;100.00;101829.53;4946155;28;20138;-81
2022/11/25 06:56:42;;;;;;;8.70;4.55;;;;;;;5.97;100.00;101828.66;4952882;28;20049;-82
2022/11/25 06:59:11;;;;;;;9.82;4.88;;;;;;;5.98;100.00;101825.28;4945184;28;20078;-81
2022/11/25 07:01:39;;;;;;;8.65;4.20;;;;;;;5.99;100.00;101835.66;4952079;28;20532;-81
2022/11/25 07:04:10;;;;;;;9.30;4.90;;;;;;;6.02;100.00;101830.72;4944835;28;20055;-81
2022/11/25 07:06:38;;;;;;;10.02;4.10;;;;;;;6.06;100.00;101824.09;4940681;28;20186;-82
2022/11/25 07:09:07;;;;;;;10.50;4.88;;;;;;;5.95;100.00;101802.84;4950678;28;20051;-82
2022/11/25 07:11:37;;;;;;;15.45;4.95;;;;;;;5.97;100.00;101819.25;4949143;28;20046;-82
2022/11/25 07:14:08;;;;;;;11.88;5.00;;;;;;;5.95;100.00;101815.69;4946353;28;20055;-82
2022/11/25 07:16:39;;;;;;;13.02;5.03;;;;;;;5.93;100.00;101814.66;4947213;28;20051;-80
2022/11/25 07:19:11;;;;;;;10.25;4.63;;;;;;;5.91;100.00;101806.00;4946808;28;20055;-82
2022/11/25 07:21:40;;;;;;;10.90;4.90;;;;;;;5.89;100.00;101797.31;4946181;28;20217;-81
2022/11/25 07:24:11;;;;;;;9.45;5.22;;;;;;;5.85;100.00;101797.88;4950490;28;20046;-78
2022/11/25 07:26:41;;;;;;;15.32;6.05;;;;;;;5.83;100.00;101802.03;4948234;28;20078;-79
2022/11/25 07:29:12;;;;;;;11.25;4.68;;;;;;;5.75;100.00;101804.09;4949760;28;20059;-81
2022/11/25 07:31:42;;;;;;;9.30;4.65;;;;;;;5.73;100.00;101797.09;4947639;28;20059;-82
2022/11/25 07:34:16;;;;;;;10.70;5.10;;;;;;;5.73;100.00;101799.66;4945883;28;20040;-83
2022/11/25 07:36:45;;;;;;;10.82;5.40;;;;;;;5.73;100.00;101797.09;4947805;28;20059;-83
2022/11/25 07:39:15;;;;;;;12.93;5.53;;;;;;;5.75;100.00;101793.84;4945210;28;20055;-83
2022/11/25 07:41:44;;;;;;;9.77;5.38;;;;;;;5.76;100.00;101790.47;4949163;28;20043;-81
2022/11/25 07:44:15;;;;;;;10.75;5.82;;;;;;;5.82;100.00;101806.28;4948831;28;20043;-82
2022/11/25 07:46:44;;;;;;;11.75;5.25;;;;;;;5.81;100.00;101801.91;4953431;28;20043;-82
2022/11/25 07:49:16;;;;;;;10.23;5.00;;;;;;;5.73;100.00;101792.84;4948839;28;20065;-78
2022/11/25 07:51:50;;;;;;;12.93;5.70;;;;;;;5.67;100.00;101795.00;4948379;28;20051;-79
2022/11/25 07:54:19;;;;;;;12.00;5.70;;;;;;;5.69;100.00;101793.44;4946209;28;20051;-80
2022/11/25 07:56:49;;;;;;;12.93;5.75;;;;;;;5.73;100.00;101791.97;4949177;28;20043;-80
2022/11/25 07:59:19;;;;;;;11.48;5.60;;;;;;;5.76;100.00;101794.72;4944245;28;20078;-81
2022/11/25 08:01:49;;;;;;;13.30;5.35;;;;;;;5.80;100.00;101795.03;4949330;28;20051;-81
2022/11/25 08:04:20;;;;;;;11.90;5.63;;;;;;;5.82;100.00;101793.44;4949869;28;20051;-81
2022/11/25 08:06:50;;;;;;;11.77;5.72;;;;;;;5.85;100.00;101792.75;4950099;28;20075;-81
2022/11/25 08:09:21;;;;;;;14.05;6.43;;;;;;;5.88;100.00;101792.94;4944060;28;20054;-82
2022/11/25 08:11:50;;;;;;;11.55;5.45;;;;;;;5.91;100.00;101782.88;4951127;28;20093;-81
2022/11/25 08:14:19;;;;;;;13.73;7.03;;;;;;;5.86;100.00;101781.69;4949324;28;20047;-79
2022/11/25 08:16:48;;;;;;;13.63;5.85;;;;;;;5.79;100.00;101784.63;4946298;28;20047;-81
2022/11/25 08:19:19;;;;;;;13.50;6.53;;;;;;;5.79;100.00;101784.63;4950351;28;20134;-82
2022/11/25 08:21:48;;;;;;;12.07;5.38;;;;;;;5.73;100.00;101779.13;4952327;28;20043;-81
2022/11/25 08:24:18;;;;;;;15.77;7.30;;;;;;;5.82;100.00;101788.31;4944236;28;20051;-82
2022/11/25 08:26:47;;;;;;;14.15;6.22;;;;;;;5.86;100.00;101787.72;4946691;28;20127;-82
2022/11/25 08:29:17;;;;;;;14.35;6.38;;;;;;;5.90;100.00;101783.66;4943708;28;20055;-82
2022/11/25 08:31:46;;;;;;;16.13;6.55;;;;;;;5.92;100.00;101789.78;4947499;28;20062;-81
2022/11/25 08:34:21;;;;;;;13.63;6.35;;;;;;;5.93;100.00;101788.97;4942282;28;20065;-82
2022/11/25 08:36:49;;;;;;;15.95;7.63;;;;;;;5.90;100.00;101783.66;4948618;28;20062;-81
2022/11/25 08:39:19;;;;;;;11.48;5.63;;;;;;;5.92;100.00;101787.22;4943233;28;20134;-80
2022/11/25 08:41:48;;;;;;;16.00;7.53;;;;;;;5.93;100.00;101783.84;4952076;28;20110;-80
2022/11/25 08:44:17;;;;;;;16.65;7.10;;;;;;;5.94;100.00;101795.03;4950516;28;20548;-81
2022/11/25 08:46:54;;;;;;;14.30;6.80;;;;;;;5.95;100.00;101805.41;4941091;28;20048;-80
2022/11/25 08:49:25;;;;;;;10.70;5.78;;;;;;;5.96;100.00;101822.63;4948668;28;20070;-81
2022/11/25 08:52:01;;;;;;;11.15;5.25;;;;;;;5.97;100.00;101832.09;4954565;28;20852;-81
2022/11/25 08:54:29;;;;;;;15.30;5.68;;;;;;;5.98;100.00;101831.34;4941826;28;20556;-83
2022/11/25 08:56:59;;;;;;;14.93;6.80;;;;;;;6.01;100.00;101828.94;4948650;28;20063;-83
2022/11/25 08:59:28;;;;;;;12.95;6.00;;;;;;;6.03;100.00;101836.78;4951381;28;20276;-83
2022/11/25 09:01:56;;;;;;;10.98;5.40;;;;;;;6.02;100.00;101832.41;4948741;28;20048;-84
2022/11/25 09:04:27;;;;;;;12.63;6.32;;;;;;;6.02;100.00;101828.16;4952980;28;20047;-82
2022/11/25 09:06:56;;;;;;;12.52;6.40;;;;;;;6.01;100.00;101812.66;4948107;28;20078;-83
2022/11/25 09:09:24;;;;;;;10.82;5.30;;;;;;;6.01;100.00;101826.38;4960873;28;20211;-83
2022/11/25 09:11:53;;;;;;;12.05;5.97;;;;;;;6.02;100.00;101819.56;4955765;28;20125;-83
2022/11/25 09:14:22;;;;;;;14.75;5.97;;;;;;;6.01;100.00;101826.38;4956770;28;20567;-82
2022/11/25 09:16:50;;;;;;;16.50;7.35;;;;;;;6.01;100.00;101833.22;4951075;28;20051;-82
2022/11/25 09:19:20;;;;;;;13.85;6.63;;;;;;;6.01;100.00;101841.78;4945650;28;20048;-83
2022/11/25 09:21:50;;;;;;;16.65;7.10;;;;;;;6.01;100.00;101822.94;4946321;28;20047;-83
2022/11/25 09:24:19;;;;;;;15.35;6.15;;;;;;;6.03;100.00;101816.22;4946002;28;20075;-83
2022/11/25 09:26:48;;;;;;;14.50;6.18;;;;;;;6.01;100.00;101813.53;4954251;28;20047;-84
2022/11/25 09:29:16;;;;;;;15.73;6.25;;;;;;;6.02;100.00;101810.16;4956452;28;20713;-85
2022/11/25 09:31:45;;;;;;;15.40;6.75;;;;;;;6.00;100.00;101806.63;4956834;28;20180;-85
2022/11/25 09:34:14;;;;;;;15.63;6.85;;;;;;;6.00;100.00;101809.19;4944078;28;20051;-83
2022/11/25 09:36:44;;;;;;;13.35;6.47;;;;;;;5.98;100.00;101797.94;4951108;28;20047;-83
2022/11/25 09:39:14;;;;;;;16.25;6.22;;;;;;;5.99;100.00;101806.53;4950235;28;20047;-81
2022/11/25 09:47:48;;;;;;;12.15;5.75;;;;;;;5.94;100.00;101813.94;4950125;28;20102;-83
2022/11/25 09:50:29;;;;;;;16.48;5.55;;;;;;;5.92;100.00;101833.47;4942825;28;20059;-83
2022/11/25 09:53:22;;;;;;;18.83;7.70;;;;;;;5.89;100.00;101846.09;4945243;28;20058;-82
2022/11/25 09:55:59;;;;;;;12.70;5.90;;;;;;;5.89;100.00;101858.94;4945490;28;20094;-83
2022/11/25 09:58:34;;;;;;;15.68;6.63;;;;;;;5.88;100.00;101855.47;4952683;28;20051;-83
2022/11/25 10:01:06;;;;;;;16.15;6.15;;;;;;;5.83;100.00;101849.16;4950694;28;20054;-81
2022/11/25 10:03:46;;;;;;;11.95;5.60;;;;;;;5.77;100.00;101843.63;4952833;28;20047;-82
2022/11/25 10:06:18;;;;;;;14.32;6.45;;;;;;;5.77;100.00;101838.50;4954649;28;20047;-83
2022/11/25 10:08:50;;;;;;;14.18;6.60;;;;;;;5.78;100.00;101839.38;4951206;28;20056;-81
2022/11/25 10:11:29;;;;;;;13.90;6.47;;;;;;;5.76;100.00;101841.81;4953811;28;20061;-83
2022/11/25 10:14:01;;;;;;;13.55;5.97;;;;;;;5.76;100.00;101848.66;4954531;28;20094;-82
2022/11/25 10:16:36;;;;;;;11.88;6.05;;;;;;;5.75;100.00;101849.41;4949891;28;20556;-83
2022/11/25 10:19:12;;;;;;;10.27;5.38;;;;;;;5.75;100.00;101844.28;4952974;28;20050;-83
2022/11/25 10:21:40;;;;;;;11.20;5.88;;;;;;;5.75;100.00;101841.72;4953973;28;20047;-83
2022/11/25 10:24:16;;;;;;;12.90;5.60;;;;;;;5.75;100.00;101831.44;4947831;28;20055;-81
2022/11/25 10:26:50;;;;;;;12.73;6.72;;;;;;;5.74;100.00;101809.13;4949965;28;20055;-81
2022/11/25 10:29:26;;;;;;;10.43;4.75;;;;;;;5.75;100.00;101823.75;4943808;28;20150;-81
2022/11/25 10:32:21;;;;;;;11.38;6.07;;;;;;;5.76;100.00;101828.09;4952274;28;20529;-82
2022/11/25 10:34:53;;;;;;;11.55;4.97;;;;;;;5.77;100.00;101828.22;4953939;28;20558;-83
2022/11/25 10:37:28;;;;;;;13.68;5.50;;;;;;;5.77;100.00;101832.44;4951224;28;20039;-84
2022/11/25 10:39:57;;;;;;;12.85;6.07;;;;;;;5.70;100.00;101820.00;4953136;28;20418;-80
2022/11/25 10:42:31;;;;;;;10.80;4.78;;;;;;;5.77;100.00;101840.16;4946899;28;20055;-82
2022/11/25 10:45:00;;;;;;;17.15;6.90;;;;;;;5.77;100.00;101829.88;4947133;28;20054;-83
2022/11/25 10:47:37;;;;;;;10.95;5.22;;;;;;;5.76;100.00;101839.25;4948059;28;20039;-82
2022/11/25 10:50:14;;;;;;;11.07;4.90;;;;;;;5.77;100.00;101850.41;4947731;28;20054;-81
2022/11/25 10:52:50;;;;;;;11.80;6.00;;;;;;;5.76;100.00;101857.25;4947106;28;20059;-80
2022/11/25 10:55:23;;;;;;;17.67;6.93;;;;;;;5.76;100.00;101862.38;4950258;28;20066;-81
2022/11/25 10:57:53;;;;;;;14.90;6.03;;;;;;;5.75;100.00;101854.56;4951676;28;20043;-81
2022/11/25 11:00:34;;;;;;;15.60;6.05;;;;;;;5.72;100.00;101864.63;4952802;28;20053;-82
2022/11/25 11:03:15;;;;;;;15.55;6.90;;;;;;;5.67;100.00;101854.94;4953127;28;20131;-81
2022/11/25 11:05:49;;;;;;;9.60;5.30;;;;;;;5.61;100.00;101846.84;4942149;28;20054;-78
2022/11/25 11:08:21;;;;;;;14.88;6.35;;;;;;;5.57;100.00;101847.44;4949774;28;20126;-80
2022/11/25 11:11:11;;;;;;;11.82;6.78;;;;;;;5.52;100.00;101848.81;4949157;28;20043;-81
2022/11/25 11:13:41;;;;;;;13.90;5.75;;;;;;;5.44;100.00;101847.38;4945383;28;20052;-81
2022/11/25 11:16:26;;;;;;;14.32;6.18;;;;;;;5.41;100.00;101842.06;4944327;28;20044;-80
2022/11/25 11:18:56;;;;;;;14.02;5.40;;;;;;;5.38;100.00;101847.88;4947042;28;20055;-80
2022/11/25 11:21:30;;;;;;;14.90;5.93;;;;;;;5.38;100.00;101849.53;4949001;28;20066;-80
2022/11/25 11:24:00;;;;;;;15.68;6.22;;;;;;;5.36;100.00;101849.44;4944870;28;20047;-80
2022/11/25 11:26:30;;;;;;;12.25;5.75;;;;;;;5.36;100.00;101844.31;4946345;28;20102;-81
2022/11/25 11:29:04;;;;;;;14.27;5.93;;;;;;;5.34;100.00;101837.28;4948066;28;20055;-80
2022/11/25 11:31:37;;;;;;;10.10;4.68;;;;;;;5.25;100.00;101830.72;4941674;28;20055;-81
2022/11/25 11:34:30;;;;;;;10.23;5.32;;;;;;;5.21;100.00;101843.25;4949423;28;20481;-80
2022/11/25 11:37:19;;;;;;;12.75;5.82;;;;;;;5.17;100.00;101826.75;4944473;28;20134;-79
2022/11/25 11:40:03;;;;;;;10.68;5.55;;;;;;;5.13;100.00;101824.78;4954427;28;20062;-78
2022/11/25 11:42:41;;;;;;;12.43;5.72;;;;;;;5.10;100.00;101824.53;4947062;28;20055;-80
2022/11/25 11:45:30;;;;;;;11.70;4.95;;;;;;;5.13;100.00;101835.03;4946972;28;20510;-80
2022/11/25 11:48:12;;;;;;;11.65;5.50;;;;;;;5.17;100.00;101842.13;4949892;28;20051;-81
2022/11/25 11:50:44;;;;;;;15.63;5.63;;;;;;;5.16;100.00;101840.38;4946645;28;20071;-81
2022/11/25 11:53:22;;;;;;;12.27;5.35;;;;;;;5.16;100.00;101845.50;4950757;28;20053;-81
2022/11/25 11:56:00;;;;;;;12.25;4.65;;;;;;;5.08;100.00;101827.78;4947738;28;20433;-82
2022/11/25 11:58:43;;;;;;;21.88;6.40;;;;;;;5.09;100.00;101843.31;4946485;28;20067;-81